createdAt,value
2018-09-06T00:01:28.387Z,41.55
2018-09-06T00:03:57.544Z,41.23
2018-09-06T00:06:28.393Z,37.33
2018-09-06T00:08:57.668Z,36.83
2018-09-06T00:11:28.519Z,35.38
2018-09-06T00:13:57.608Z,34.10
2018-09-06T00:16:28.471Z,36.60
2018-09-06T00:18:57.583Z,37.40
2018-09-06T00:21:28.711Z,39.13
2018-09-06T00:23:57.859Z,35.60
2018-09-06T00:26:28.539Z,34.10
2018-09-06T00:28:57.795Z,37.33
2018-09-06T00:31:28.463Z,33.63
2018-09-06T00:33:57.695Z,34.50
2018-09-06T00:41:24.857Z,34.87
2018-09-06T00:43:54.001Z,34.37
2018-09-06T00:46:23.159Z,36.37
2018-09-06T00:48:52.190Z,37.83
2018-09-06T00:51:21.389Z,36.83
2018-09-06T00:53:50.607Z,35.40
2018-09-06T00:56:19.749Z,35.37
2018-09-06T00:58:48.941Z,37.00
2018-09-06T01:01:18.162Z,36.20
2018-09-06T01:03:47.399Z,34.27
2018-09-06T01:06:16.634Z,34.03
2018-09-06T01:08:45.930Z,34.83
2018-09-06T01:11:15.178Z,32.20
2018-09-06T01:13:44.370Z,32.10
2018-09-06T01:16:13.550Z,35.40
2018-09-06T01:18:42.709Z,33.60
2018-09-06T01:21:11.818Z,33.58
2018-09-06T01:23:41.010Z,32.57
2018-09-06T01:26:10.227Z,32.50
2018-09-06T01:28:39.486Z,33.35
2018-09-06T01:31:08.726Z,31.42
2018-09-06T01:33:37.913Z,30.40
2018-09-06T01:36:12.372Z,29.60
2018-09-06T01:38:41.569Z,32.53
2018-09-06T01:41:10.773Z,30.00
2018-09-06T01:43:39.922Z,29.20
2018-09-06T01:46:09.015Z,31.33
2018-09-06T01:48:38.263Z,33.77
2018-09-06T01:51:07.490Z,31.30
2018-09-06T01:53:36.640Z,30.50
2018-09-06T01:56:05.773Z,30.37
2018-09-06T01:58:34.978Z,28.27
2018-09-06T02:01:04.119Z,27.93
2018-09-06T02:03:33.322Z,28.52
2018-09-06T02:06:02.511Z,28.90
2018-09-06T02:08:31.738Z,26.52
2018-09-06T02:11:00.937Z,28.97
2018-09-06T02:13:30.110Z,27.60
2018-09-06T02:15:59.356Z,27.40
2018-09-06T02:18:28.816Z,26.75
2018-09-06T02:20:59.004Z,27.45
2018-09-06T02:23:29.030Z,27.10
2018-09-06T02:25:58.992Z,27.80
2018-09-06T02:28:29.034Z,27.85
2018-09-06T02:30:58.866Z,26.97
2018-09-06T02:33:29.100Z,29.34
2018-09-06T02:35:59.219Z,27.15
2018-09-06T02:38:29.050Z,26.50
2018-09-06T02:40:59.126Z,26.65
2018-09-06T02:43:29.145Z,26.27
2018-09-06T02:45:59.247Z,26.50
2018-09-06T02:48:34.419Z,25.92
2018-09-06T02:51:08.846Z,26.50
2018-09-06T02:53:37.995Z,25.10
2018-09-06T02:56:07.190Z,27.90
2018-09-06T02:58:36.586Z,28.53
2018-09-06T03:01:05.841Z,25.07
2018-09-06T03:03:35.142Z,25.20
2018-09-06T03:06:04.361Z,25.20
2018-09-06T03:08:33.458Z,26.50
2018-09-06T03:11:10.584Z,26.63
2018-09-06T03:13:39.727Z,24.27
2018-09-06T03:16:08.909Z,24.43
2018-09-06T03:18:38.027Z,27.00
2018-09-06T03:21:07.115Z,25.80
2018-09-06T03:23:36.249Z,23.93
2018-09-06T03:26:10.843Z,25.27
2018-09-06T03:28:39.929Z,26.37
2018-09-06T03:31:09.268Z,24.53
2018-09-06T03:33:38.469Z,27.73
2018-09-06T03:36:07.712Z,24.37
2018-09-06T03:38:36.780Z,25.02
2018-09-06T03:41:05.974Z,23.20
2018-09-06T03:43:35.210Z,22.37
2018-09-06T03:46:05.395Z,24.97
2018-09-06T03:48:34.479Z,23.60
2018-09-06T03:51:03.841Z,22.77
2018-09-06T03:53:32.977Z,23.40
2018-09-06T03:56:02.130Z,22.90
2018-09-06T03:58:31.268Z,21.93
2018-09-06T04:01:00.379Z,23.13
2018-09-06T04:03:30.164Z,25.15
2018-09-06T04:06:00.261Z,24.43
2018-09-06T04:08:30.204Z,23.12
2018-09-06T04:11:00.242Z,24.27
2018-09-06T04:13:30.363Z,23.42
2018-09-06T04:16:00.337Z,22.95
2018-09-06T04:18:30.538Z,22.52
2018-09-06T04:21:00.552Z,22.80
2018-09-06T04:23:30.517Z,21.87
2018-09-06T04:26:00.475Z,23.38
2018-09-06T04:28:30.566Z,23.40
2018-09-06T04:31:00.685Z,22.15
2018-09-06T04:33:30.628Z,22.48
2018-09-06T04:36:00.739Z,23.47
2018-09-06T04:38:31.251Z,23.12
2018-09-06T04:41:00.755Z,22.05
2018-09-06T04:43:30.894Z,24.80
2018-09-06T04:46:00.906Z,23.35
2018-09-06T04:48:30.727Z,22.10
2018-09-06T04:51:00.802Z,22.58
2018-09-06T04:53:30.903Z,22.50
2018-09-06T04:56:01.008Z,21.42
2018-09-06T04:58:30.848Z,20.23
2018-09-06T05:01:00.939Z,20.60
2018-09-06T05:03:30.934Z,22.98
2018-09-06T05:06:01.130Z,21.23
2018-09-06T05:08:31.143Z,22.25
2018-09-06T05:11:01.105Z,21.93
2018-09-06T05:13:31.116Z,22.37
2018-09-06T05:16:01.186Z,20.45
2018-09-06T05:18:31.109Z,22.85
2018-09-06T05:21:01.167Z,20.25
2018-09-06T05:23:31.207Z,21.90
2018-09-06T05:26:01.285Z,21.45
2018-09-06T05:28:31.298Z,19.20
2018-09-06T05:31:01.339Z,19.87
2018-09-06T05:33:31.364Z,20.90
2018-09-06T05:36:01.362Z,22.48
2018-09-06T05:38:31.355Z,21.97
2018-09-06T05:41:01.506Z,19.40
2018-09-06T05:43:31.526Z,20.30
2018-09-06T05:46:01.466Z,20.43
2018-09-06T05:48:31.650Z,20.27
2018-09-06T05:51:01.628Z,20.00
2018-09-06T05:53:31.681Z,18.82
2018-09-06T05:56:01.676Z,22.40
2018-09-06T05:58:31.637Z,20.60
2018-09-06T06:01:01.663Z,20.45
2018-09-06T06:03:30.853Z,18.07
2018-09-06T06:05:59.990Z,20.73
2018-09-06T06:08:41.426Z,21.83
2018-09-06T06:11:10.643Z,22.10
2018-09-06T06:13:39.922Z,20.50
2018-09-06T06:16:09.661Z,22.43
2018-09-06T06:18:38.615Z,21.77
2018-09-06T06:21:07.785Z,22.77
2018-09-06T06:23:36.994Z,22.64
2018-09-06T06:26:06.479Z,24.37
2018-09-06T06:28:35.610Z,22.80
2018-09-06T06:31:04.810Z,23.43
2018-09-06T06:33:33.941Z,23.50
2018-09-06T06:36:03.130Z,22.73
2018-09-06T06:38:32.275Z,25.72
2018-09-06T06:41:02.270Z,24.45
2018-09-06T06:43:32.318Z,24.62
2018-09-06T06:46:02.283Z,20.12
2018-09-06T06:48:32.322Z,22.27
2018-09-06T06:51:02.357Z,21.52
2018-09-06T06:53:32.357Z,17.56
2018-09-06T06:56:02.346Z,25.23
2018-09-06T06:58:32.646Z,17.74
2018-09-06T07:01:02.475Z,18.73
2018-09-06T07:03:32.471Z,20.12
2018-09-06T07:06:02.358Z,18.85
2018-09-06T07:08:32.374Z,18.98
2018-09-06T07:11:02.534Z,18.95
2018-09-06T07:13:32.492Z,17.04
2018-09-06T07:16:02.407Z,19.02
2018-09-06T07:18:32.484Z,20.57
2018-09-06T07:21:02.486Z,18.52
2018-09-06T07:23:32.464Z,18.54
2018-09-06T07:26:02.505Z,18.40
2018-09-06T07:28:32.510Z,18.10
2018-09-06T07:31:02.570Z,19.87
2018-09-06T07:33:32.559Z,17.87
2018-09-06T07:36:02.551Z,16.50
2018-09-06T07:38:32.623Z,16.38
2018-09-06T07:41:02.430Z,17.00
2018-09-06T07:43:32.532Z,18.30
2018-09-06T07:46:02.544Z,20.08
2018-09-06T07:48:33.682Z,20.12
2018-09-06T07:51:02.882Z,20.30
2018-09-06T07:53:32.581Z,20.72
2018-09-06T07:56:02.686Z,18.77
2018-09-06T07:58:32.719Z,22.78
2018-09-06T08:01:02.693Z,18.67
2018-09-06T08:03:32.779Z,18.52
2018-09-06T08:06:02.726Z,21.02
2018-09-06T08:08:33.001Z,19.40
2018-09-06T08:11:02.741Z,19.50
2018-09-06T08:13:32.831Z,19.78
2018-09-06T08:16:02.861Z,19.65
2018-09-06T08:18:32.855Z,18.58
2018-09-06T08:21:02.716Z,18.60
2018-09-06T08:23:32.800Z,17.65
2018-09-06T08:26:02.769Z,20.25
2018-09-06T08:28:32.753Z,21.86
2018-09-06T08:31:02.874Z,19.00
2018-09-06T08:33:32.894Z,19.50
2018-09-06T08:36:02.858Z,16.55
2018-09-06T08:38:32.912Z,18.58
2018-09-06T08:41:03.021Z,18.02
2018-09-06T08:43:32.926Z,18.30
2018-09-06T08:46:02.893Z,18.65
2018-09-06T08:48:32.975Z,15.65
2018-09-06T08:51:03.011Z,16.65
2018-09-06T08:53:33.078Z,15.74
2018-09-06T08:56:03.059Z,19.37
2018-09-06T08:58:33.176Z,24.32
2018-09-06T09:01:08.419Z,19.30
2018-09-06T09:03:37.631Z,16.23
2018-09-06T09:06:06.889Z,15.10
2018-09-06T09:08:35.894Z,15.27
2018-09-06T09:11:05.287Z,15.58
2018-09-06T09:13:34.337Z,16.05
2018-09-06T09:16:03.548Z,14.70
2018-09-06T09:18:33.150Z,15.95
2018-09-06T09:21:03.182Z,15.83
2018-09-06T09:23:33.181Z,14.58
2018-09-06T09:26:03.237Z,14.55
2018-09-06T09:28:33.185Z,15.63
2018-09-06T09:31:03.286Z,16.20
2018-09-06T09:33:33.302Z,15.08
2018-09-06T09:36:03.305Z,15.10
2018-09-06T09:38:33.325Z,14.50
2018-09-06T09:41:03.341Z,14.65
2018-09-06T09:43:33.434Z,15.76
2018-09-06T09:48:31.662Z,17.60
2018-09-06T09:51:00.851Z,16.47
2018-09-06T09:53:30.026Z,18.83
2018-09-06T09:55:59.117Z,17.07
2018-09-06T09:58:28.350Z,15.17
2018-09-06T10:00:57.514Z,14.50
2018-09-06T10:03:32.535Z,15.03
2018-09-06T10:06:06.805Z,15.13
2018-09-06T10:08:41.206Z,15.28
2018-09-06T10:11:10.385Z,16.00
2018-09-06T10:13:39.434Z,17.03
2018-09-06T10:16:08.633Z,14.33
2018-09-06T10:18:37.828Z,14.58
2018-09-06T10:21:06.914Z,14.17
2018-09-06T10:23:36.078Z,13.05
2018-09-06T10:26:05.214Z,14.70
2018-09-06T10:28:34.348Z,15.30
2018-09-06T10:31:03.695Z,15.18
2018-09-06T10:33:33.777Z,15.88
2018-09-06T10:36:03.787Z,16.30
2018-09-06T10:38:33.621Z,16.92
2018-09-06T10:41:03.755Z,22.38
2018-09-06T10:43:33.904Z,19.54
2018-09-06T10:46:03.861Z,15.07
2018-09-06T10:48:33.844Z,15.98
2018-09-06T10:51:03.861Z,13.97
2018-09-06T10:53:33.865Z,15.16
2018-09-06T10:56:03.957Z,14.75
2018-09-06T10:58:33.890Z,14.54
2018-09-06T11:01:09.174Z,14.15
2018-09-06T11:03:38.415Z,13.68
2018-09-06T11:06:07.593Z,12.60
2018-09-06T11:08:36.742Z,13.10
2018-09-06T11:11:06.037Z,13.00
2018-09-06T11:13:35.238Z,12.73
2018-09-06T11:16:04.425Z,11.73
2018-09-06T11:18:34.081Z,12.13
2018-09-06T11:21:04.106Z,12.33
2018-09-06T11:23:34.263Z,11.68
2018-09-06T11:26:04.226Z,16.50
2018-09-06T11:28:34.266Z,11.48
2018-09-06T11:31:04.213Z,11.43
2018-09-06T11:33:34.250Z,11.53
2018-09-06T11:36:04.318Z,11.87
2018-09-06T11:38:33.513Z,11.40
2018-09-06T11:41:02.675Z,9.67
2018-09-06T11:43:31.770Z,10.13
2018-09-06T11:46:00.955Z,10.90
2018-09-06T11:48:30.071Z,10.30
2018-09-06T11:50:59.419Z,11.53
2018-09-06T11:53:28.616Z,10.20
2018-09-06T11:55:57.722Z,10.37
2018-09-06T11:58:27.316Z,13.17
2018-09-06T12:00:56.491Z,11.40
2018-09-06T12:03:25.580Z,9.97
2018-09-06T12:05:54.703Z,10.03
2018-09-06T12:08:23.918Z,9.27
2018-09-06T12:10:53.085Z,9.53
2018-09-06T12:13:22.161Z,9.40
2018-09-06T12:15:51.302Z,10.20
2018-09-06T12:18:20.412Z,9.50
2018-09-06T12:20:49.543Z,8.30
2018-09-06T12:23:18.621Z,9.55
2018-09-06T12:25:47.875Z,8.50
2018-09-06T12:28:16.845Z,8.50
2018-09-06T12:30:46.031Z,9.03
2018-09-06T12:33:15.178Z,8.28
2018-09-06T12:35:44.631Z,10.08
2018-09-06T12:38:13.657Z,8.70
2018-09-06T12:40:42.739Z,11.13
2018-09-06T12:43:11.768Z,8.90
2018-09-06T12:45:40.863Z,8.90
2018-09-06T12:48:09.943Z,8.23
2018-09-06T12:50:39.067Z,7.92
2018-09-06T12:53:08.150Z,9.87
2018-09-06T12:55:37.288Z,8.90
2018-09-06T12:58:06.458Z,8.90
2018-09-06T13:00:35.606Z,8.90
2018-09-06T13:03:05.005Z,8.53
2018-09-06T13:05:34.956Z,8.63
2018-09-06T13:08:05.037Z,8.77
2018-09-06T13:10:35.114Z,8.28
2018-09-06T13:13:05.099Z,7.80
2018-09-06T13:15:35.091Z,8.80
2018-09-06T13:18:05.096Z,8.50
2018-09-06T13:20:35.134Z,8.98
2018-09-06T13:23:05.299Z,9.40
2018-09-06T13:25:35.166Z,9.10
2018-09-06T13:28:05.212Z,8.40
2018-09-06T13:30:35.279Z,9.48
2018-09-06T13:33:05.575Z,10.33
2018-09-06T13:35:35.280Z,11.43
2018-09-06T13:38:05.330Z,10.63
2018-09-06T13:40:35.327Z,11.23
2018-09-06T13:43:05.279Z,11.87
2018-09-06T13:45:35.386Z,21.40
2018-09-06T13:48:05.414Z,16.90
2018-09-06T13:50:35.477Z,13.58
2018-09-06T13:53:05.395Z,11.70
2018-09-06T13:55:35.423Z,12.96
2018-09-06T13:58:05.453Z,12.87
2018-09-06T14:00:35.548Z,12.80
2018-09-06T14:03:05.626Z,11.57
2018-09-06T14:05:35.615Z,12.46
2018-09-06T14:08:05.561Z,14.33
2018-09-06T14:10:35.719Z,13.48
2018-09-06T14:13:05.769Z,12.25
2018-09-06T14:15:35.751Z,11.06
2018-09-06T14:18:05.811Z,12.78
2018-09-06T14:20:35.830Z,12.60
2018-09-06T14:23:05.793Z,13.80
2018-09-06T14:25:35.874Z,12.30
2018-09-06T14:28:05.786Z,12.00
2018-09-06T14:30:35.909Z,13.93
2018-09-06T14:33:05.874Z,12.60
2018-09-06T14:35:35.923Z,12.68
2018-09-06T14:38:05.859Z,12.93
2018-09-06T14:40:35.912Z,19.08
2018-09-06T14:43:06.098Z,15.70
2018-09-06T14:45:35.998Z,12.86
2018-09-06T14:48:06.069Z,11.45
2018-09-06T14:50:35.982Z,12.74
2018-09-06T14:53:06.014Z,12.98
2018-09-06T14:55:36.093Z,13.10
2018-09-06T14:58:06.149Z,12.80
2018-09-06T15:00:36.154Z,12.74
2018-09-06T15:03:06.118Z,14.20
2018-09-06T15:05:36.304Z,12.24
2018-09-06T15:08:06.259Z,12.10
2018-09-06T15:10:36.287Z,13.18
2018-09-06T15:13:06.426Z,13.50
2018-09-06T15:15:36.282Z,13.20
2018-09-06T15:18:06.478Z,13.67
2018-09-06T15:20:36.238Z,11.43
2018-09-06T15:23:06.516Z,12.30
2018-09-06T15:25:36.496Z,23.52
2018-09-06T15:28:06.342Z,13.55
2018-09-06T15:30:36.450Z,11.40
2018-09-06T15:33:06.749Z,12.03
2018-09-06T15:35:36.718Z,11.66
2018-09-06T15:38:07.215Z,12.82
2018-09-06T15:40:36.415Z,10.93
2018-09-06T15:43:06.595Z,12.50
2018-09-06T15:45:36.513Z,12.28
2018-09-06T15:48:09.650Z,12.60
2018-09-06T15:50:38.781Z,13.10
2018-09-06T15:53:08.033Z,13.07
2018-09-06T15:55:37.200Z,12.50
2018-09-06T15:58:06.723Z,12.30
2018-09-06T16:00:36.857Z,12.68
2018-09-06T16:03:06.835Z,13.48
2018-09-06T16:05:36.969Z,11.74
2018-09-06T16:08:06.886Z,12.73
2018-09-06T16:10:36.894Z,11.96
2018-09-06T16:13:06.826Z,21.20
2018-09-06T16:15:36.898Z,13.52
2018-09-06T16:18:06.962Z,11.35
2018-09-06T16:20:36.981Z,11.83
2018-09-06T16:23:07.048Z,13.03
2018-09-06T16:25:37.027Z,12.92
2018-09-06T16:28:07.102Z,13.32
2018-09-06T16:30:37.088Z,12.10
2018-09-06T16:33:07.170Z,12.18
2018-09-06T16:35:37.135Z,14.60
2018-09-06T16:38:07.242Z,13.80
2018-09-06T16:40:37.106Z,14.43
2018-09-06T16:43:07.370Z,13.75
2018-09-06T16:45:37.342Z,13.78
2018-09-06T16:48:07.452Z,12.73
2018-09-06T16:50:37.404Z,12.60
2018-09-06T16:53:07.879Z,12.82
2018-09-06T16:55:37.469Z,12.40
2018-09-06T16:58:07.542Z,13.45
2018-09-06T17:00:37.518Z,14.04
2018-09-06T17:03:07.502Z,12.98
2018-09-06T17:05:37.534Z,12.46
2018-09-06T17:08:07.523Z,12.18
2018-09-06T17:10:37.579Z,12.50
2018-09-06T17:13:07.589Z,12.73
2018-09-06T17:15:37.798Z,13.42
2018-09-06T17:18:07.811Z,11.70
2018-09-06T17:20:37.827Z,13.14
2018-09-06T17:23:07.826Z,11.70
2018-09-06T17:25:37.745Z,11.18
2018-09-06T17:28:07.902Z,17.77
2018-09-06T17:30:37.910Z,22.52
2018-09-06T17:33:07.959Z,13.60
2018-09-06T17:35:37.748Z,13.48
2018-09-06T17:38:07.897Z,13.38
2018-09-06T17:40:37.909Z,12.15
2018-09-06T17:43:07.926Z,12.58
2018-09-06T17:45:37.994Z,10.44
2018-09-06T17:48:08.106Z,11.88
2018-09-06T17:50:38.123Z,10.88
2018-09-06T17:53:08.139Z,11.93
2018-09-06T17:55:38.222Z,12.28
2018-09-06T17:58:08.217Z,12.68
2018-09-06T18:00:45.542Z,11.56
2018-09-06T18:03:15.518Z,11.97
2018-09-06T18:05:44.603Z,10.87
2018-09-06T18:08:13.758Z,11.00
2018-09-06T18:10:42.890Z,13.07
2018-09-06T18:13:12.059Z,11.60
2018-09-06T18:15:41.234Z,11.80
2018-09-06T18:18:10.370Z,12.07
2018-09-06T18:20:39.414Z,11.78
2018-09-06T18:23:08.587Z,12.80
2018-09-06T18:25:38.466Z,11.84
2018-09-06T18:28:08.787Z,11.47
2018-09-06T18:30:38.574Z,11.83
2018-09-06T18:33:08.642Z,12.63
2018-09-06T18:35:38.630Z,12.55
2018-09-06T18:38:08.779Z,11.90
2018-09-06T18:40:38.746Z,10.90
2018-09-06T18:43:08.762Z,11.97
2018-09-06T18:45:38.750Z,11.85
2018-09-06T18:48:08.938Z,13.30
2018-09-06T18:50:38.014Z,12.78
2018-09-06T18:53:07.162Z,13.30
2018-09-06T18:55:36.402Z,13.40
2018-09-06T18:58:05.727Z,12.50
2018-09-06T19:00:34.958Z,13.78
2018-09-06T19:03:04.087Z,12.80
2018-09-06T19:05:33.246Z,12.58
2018-09-06T19:08:02.386Z,12.27
2018-09-06T19:10:31.863Z,13.40
2018-09-06T19:13:00.994Z,15.75
2018-09-06T19:15:30.099Z,14.77
2018-09-06T19:17:59.252Z,14.20
2018-09-06T19:20:28.382Z,15.37
2018-09-06T19:22:57.566Z,15.65
2018-09-06T19:25:27.403Z,15.45
2018-09-06T19:27:56.666Z,15.13
2018-09-06T19:30:25.811Z,14.47
2018-09-06T19:32:54.998Z,13.28
2018-09-06T19:35:24.230Z,10.73
2018-09-06T19:37:53.450Z,11.80
2018-09-06T19:40:22.605Z,10.77
2018-09-06T19:42:51.734Z,10.78
2018-09-06T19:45:20.928Z,10.63
2018-09-06T19:47:50.159Z,11.73
2018-09-06T19:50:19.269Z,11.55
2018-09-06T19:52:48.474Z,12.58
2018-09-06T19:55:17.685Z,11.60
2018-09-06T19:57:46.805Z,11.47
2018-09-06T20:00:15.976Z,12.40
2018-09-06T20:02:45.154Z,13.22
2018-09-06T20:05:14.307Z,12.60
2018-09-06T20:07:43.537Z,14.90
2018-09-06T20:10:12.670Z,13.70
2018-09-06T20:12:41.974Z,13.62
2018-09-06T20:15:11.119Z,14.10
2018-09-06T20:17:40.711Z,13.62
2018-09-06T20:20:10.705Z,12.65
2018-09-06T20:22:40.724Z,11.64
2018-09-06T20:25:10.805Z,11.00
2018-09-06T20:27:40.773Z,14.14
2018-09-06T20:30:10.677Z,11.28
2018-09-06T20:32:40.875Z,10.98
2018-09-06T20:35:10.742Z,11.40
2018-09-06T20:37:40.874Z,12.74
2018-09-06T20:40:11.137Z,11.63
2018-09-06T20:42:41.334Z,11.33
2018-09-06T20:45:11.305Z,10.60
2018-09-06T20:47:41.606Z,9.43
2018-09-06T20:50:12.746Z,10.50
2018-09-06T20:52:41.964Z,9.90
2018-09-06T20:55:12.020Z,10.53
2018-09-06T20:57:42.015Z,10.44
2018-09-06T21:00:18.697Z,10.30
2018-09-06T21:02:47.888Z,9.28
2018-09-06T21:05:16.982Z,8.15
2018-09-06T21:07:46.145Z,7.40
2018-09-06T21:10:15.236Z,8.00
2018-09-06T21:12:44.474Z,7.67
2018-09-06T21:15:13.620Z,7.40
2018-09-06T21:17:42.781Z,6.57
2018-09-06T21:20:12.350Z,6.55
2018-09-06T21:22:42.374Z,5.85
2018-09-06T21:25:12.239Z,5.37
2018-09-06T21:27:42.429Z,5.80
2018-09-06T21:30:12.418Z,6.20
2018-09-06T21:32:42.534Z,5.83
2018-09-06T21:35:12.363Z,5.80
2018-09-06T21:37:42.464Z,5.95
2018-09-06T21:40:12.551Z,5.60
2018-09-06T21:42:42.470Z,5.65
2018-09-06T21:45:12.561Z,6.33
2018-09-06T21:47:42.607Z,4.98
2018-09-06T21:50:12.585Z,5.70
2018-09-06T21:52:42.656Z,5.48
2018-09-06T21:55:12.586Z,4.75
2018-09-06T21:57:42.691Z,6.04
2018-09-06T22:00:12.602Z,5.12
2018-09-06T22:02:47.973Z,4.40
2018-09-06T22:05:17.243Z,4.92
2018-09-06T22:07:46.541Z,5.17
2018-09-06T22:10:18.390Z,5.15
2018-09-06T22:12:47.579Z,5.28
2018-09-06T22:15:16.630Z,4.80
2018-09-06T22:17:45.725Z,5.17
2018-09-06T22:20:14.950Z,5.65
2018-09-06T22:22:44.313Z,5.42
2018-09-06T22:25:13.537Z,5.60
2018-09-06T22:27:42.907Z,5.87
2018-09-06T22:30:12.955Z,5.42
2018-09-06T22:32:43.031Z,5.96
2018-09-06T22:35:13.033Z,7.20
2018-09-06T22:37:42.982Z,6.20
2018-09-06T22:40:13.094Z,6.30
2018-09-06T22:42:43.099Z,7.96
2018-09-06T22:45:13.062Z,7.97
2018-09-06T22:47:43.259Z,6.36
2018-09-06T22:50:13.129Z,6.00
2018-09-06T22:52:43.071Z,6.62
2018-09-06T22:55:13.187Z,7.22
2018-09-06T22:57:43.222Z,7.55
2018-09-06T23:00:13.285Z,7.95
2018-09-06T23:02:48.582Z,7.87
2018-09-06T23:05:17.710Z,8.00
2018-09-06T23:07:46.903Z,7.63
2018-09-06T23:10:16.067Z,8.40
2018-09-06T23:12:45.130Z,9.43
2018-09-06T23:15:14.312Z,9.37
2018-09-06T23:17:43.531Z,8.70
2018-09-06T23:20:13.456Z,7.62
2018-09-06T23:22:43.639Z,7.82
2018-09-06T23:25:13.536Z,7.42
2018-09-06T23:27:43.587Z,7.82
2018-09-06T23:30:13.782Z,6.60
2018-09-06T23:32:43.668Z,6.88
2018-09-06T23:35:13.611Z,6.60
2018-09-06T23:37:43.706Z,6.86
2018-09-06T23:40:13.582Z,6.55
2018-09-06T23:42:43.764Z,5.98
2018-09-06T23:45:13.819Z,6.33
2018-09-06T23:47:43.754Z,6.80
2018-09-06T23:50:13.814Z,6.00
2018-09-06T23:52:43.930Z,5.40
2018-09-06T23:55:13.930Z,5.95
2018-09-06T23:57:43.937Z,5.10
